createdAt,value
2018-12-08T00:00:34.585Z,7.60
2018-12-08T00:03:04.421Z,7.50
2018-12-08T00:05:33.563Z,7.50
2018-12-08T00:08:02.637Z,7.50
2018-12-08T00:10:31.731Z,7.50
2018-12-08T00:13:01.022Z,7.50
2018-12-08T00:15:30.145Z,7.60
2018-12-08T00:17:59.268Z,7.60
2018-12-08T00:20:28.392Z,7.70
2018-12-08T00:22:57.463Z,7.70
2018-12-08T00:25:26.607Z,7.60
2018-12-08T00:27:55.711Z,7.60
2018-12-08T00:32:36.856Z,7.70
2018-12-08T00:35:05.995Z,7.70
2018-12-08T00:37:35.074Z,7.70
2018-12-08T00:40:05.122Z,7.70
2018-12-08T00:42:34.212Z,7.70
2018-12-08T00:45:03.333Z,7.70
2018-12-08T00:47:32.473Z,7.70
2018-12-08T00:50:01.571Z,7.60
2018-12-08T00:52:30.874Z,7.70
2018-12-08T00:54:59.961Z,7.70
2018-12-08T00:57:29.075Z,7.70
2018-12-08T00:59:58.265Z,7.80
2018-12-08T01:02:27.384Z,7.80
2018-12-08T01:04:56.522Z,7.70
2018-12-08T01:07:25.706Z,7.80
2018-12-08T01:09:54.855Z,7.80
2018-12-08T01:12:24.023Z,7.80
2018-12-08T01:14:53.138Z,7.80
2018-12-08T01:17:22.234Z,7.80
2018-12-08T01:19:51.325Z,7.90
2018-12-08T01:22:21.110Z,7.90
2018-12-08T01:24:50.245Z,7.90
2018-12-08T01:27:19.334Z,7.90
2018-12-08T01:29:48.471Z,7.90
2018-12-08T01:32:17.563Z,7.90
2018-12-08T01:34:46.655Z,7.90
2018-12-08T01:37:15.764Z,7.90
2018-12-08T01:39:44.881Z,7.90
2018-12-08T01:42:14.036Z,7.90
2018-12-08T01:44:43.136Z,7.90
2018-12-08T01:47:12.302Z,7.90
2018-12-08T01:49:41.434Z,8.00
2018-12-08T01:52:10.539Z,7.90
2018-12-08T01:54:39.701Z,7.90
2018-12-08T01:57:09.380Z,7.90
2018-12-08T01:59:38.485Z,7.90
2018-12-08T02:02:07.597Z,7.90
2018-12-08T02:04:36.714Z,7.90
2018-12-08T02:07:05.862Z,7.90
2018-12-08T02:09:35.909Z,7.90
2018-12-08T02:12:05.077Z,7.90
2018-12-08T02:14:34.202Z,7.80
2018-12-08T02:17:03.375Z,7.80
2018-12-08T02:19:32.762Z,7.90
2018-12-08T02:22:01.862Z,7.90
2018-12-08T02:24:31.045Z,7.90
2018-12-08T02:27:00.202Z,7.90
2018-12-08T02:29:29.338Z,7.90
2018-12-08T02:31:58.496Z,7.90
2018-12-08T02:34:27.601Z,7.90
2018-12-08T02:36:56.703Z,7.90
2018-12-08T02:39:25.814Z,7.90
2018-12-08T02:41:54.929Z,8.00
2018-12-08T02:44:24.241Z,7.90
2018-12-08T02:46:53.403Z,7.90
2018-12-08T02:55:25.394Z,8.00
2018-12-08T02:57:54.405Z,8.00
2018-12-08T03:00:23.298Z,8.00
2018-12-08T03:02:52.181Z,7.90
2018-12-08T03:05:21.071Z,7.90
2018-12-08T03:07:49.951Z,8.00
2018-12-08T03:10:18.854Z,8.10
2018-12-08T03:12:48.107Z,8.00
2018-12-08T03:15:17.009Z,7.90
2018-12-08T03:17:45.918Z,7.80
2018-12-08T03:20:14.897Z,7.80
2018-12-08T03:22:43.746Z,7.70
2018-12-08T03:25:12.703Z,7.60
2018-12-08T03:27:41.614Z,7.50
2018-12-08T03:30:10.539Z,7.60
2018-12-08T03:32:39.516Z,7.60
2018-12-08T03:35:08.634Z,7.50
2018-12-08T03:37:37.483Z,7.50
2018-12-08T03:40:06.807Z,7.50
2018-12-08T03:42:35.742Z,7.50
2018-12-08T03:45:05.179Z,7.40
2018-12-08T03:47:34.028Z,7.40
2018-12-08T03:50:02.932Z,7.40
2018-12-08T03:52:31.847Z,7.30
2018-12-08T03:55:00.744Z,7.30
2018-12-08T03:57:29.599Z,7.30
2018-12-08T03:59:58.523Z,7.40
2018-12-08T04:02:27.433Z,7.40
2018-12-08T04:04:56.469Z,7.40
2018-12-08T04:07:25.371Z,7.40
2018-12-08T04:09:54.249Z,7.40
2018-12-08T04:12:23.193Z,7.50
2018-12-08T04:14:52.039Z,7.50
2018-12-08T04:17:20.932Z,7.50
2018-12-08T04:19:49.860Z,7.50
2018-12-08T04:22:18.804Z,7.50
2018-12-08T04:24:47.711Z,7.60
2018-12-08T04:27:16.647Z,7.60
2018-12-08T04:29:45.612Z,7.50
2018-12-08T04:32:14.519Z,7.50
2018-12-08T04:34:43.626Z,7.50
2018-12-08T04:37:12.547Z,7.60
2018-12-08T04:39:41.471Z,7.60
2018-12-08T04:42:10.455Z,7.60
2018-12-08T04:44:39.350Z,7.70
2018-12-08T04:47:08.316Z,7.70
2018-12-08T04:49:37.376Z,7.70
2018-12-08T04:52:06.276Z,7.80
2018-12-08T04:54:35.187Z,7.80
2018-12-08T04:57:04.045Z,7.90
2018-12-08T04:59:32.970Z,7.90
2018-12-08T05:02:01.897Z,7.90
2018-12-08T05:04:30.794Z,7.90
2018-12-08T05:06:59.794Z,8.00
2018-12-08T05:09:28.725Z,8.00
2018-12-08T05:11:57.629Z,8.00
2018-12-08T05:14:26.577Z,8.00
2018-12-08T05:16:55.569Z,8.00
2018-12-08T05:19:24.539Z,8.00
2018-12-08T05:21:53.450Z,8.10
2018-12-08T05:24:22.303Z,8.00
2018-12-08T05:26:51.232Z,8.00
2018-12-08T05:29:20.226Z,8.10
2018-12-08T05:31:49.138Z,8.10
2018-12-08T05:34:18.082Z,8.10
2018-12-08T05:36:47.044Z,8.20
2018-12-08T05:39:15.917Z,8.10
2018-12-08T05:41:44.842Z,8.20
2018-12-08T05:44:13.774Z,8.20
2018-12-08T05:46:42.723Z,8.10
2018-12-08T05:49:11.662Z,8.10
2018-12-08T05:51:40.674Z,8.20
2018-12-08T05:54:10.026Z,8.20
2018-12-08T05:56:38.894Z,8.20
2018-12-08T05:59:07.745Z,8.20
2018-12-08T06:01:36.696Z,8.30
2018-12-08T06:04:05.642Z,8.30
2018-12-08T06:06:34.585Z,8.30
2018-12-08T06:09:04.379Z,8.30
2018-12-08T06:11:33.267Z,8.30
2018-12-08T06:14:02.148Z,8.30
2018-12-08T06:16:31.018Z,8.30
2018-12-08T06:18:59.924Z,8.40
2018-12-08T06:21:43.506Z,8.40
2018-12-08T06:24:12.785Z,8.50
2018-12-08T06:26:55.417Z,8.50
2018-12-08T06:29:24.440Z,8.50
2018-12-08T06:31:53.422Z,8.50
2018-12-08T06:34:22.287Z,8.50
2018-12-08T06:36:51.253Z,8.50
2018-12-08T06:39:20.179Z,8.50
2018-12-08T06:41:49.323Z,8.50
2018-12-08T06:44:18.164Z,8.60
2018-12-08T06:46:47.097Z,8.50
2018-12-08T06:49:16.069Z,8.50
2018-12-08T06:51:44.989Z,8.50
2018-12-08T06:54:13.813Z,8.60
2018-12-08T06:56:42.654Z,8.50
2018-12-08T06:59:11.575Z,8.50
2018-12-08T07:01:40.474Z,8.50
2018-12-08T07:04:09.406Z,8.50
2018-12-08T07:06:38.322Z,8.50
2018-12-08T07:09:08.086Z,8.50
2018-12-08T07:11:37.004Z,8.50
2018-12-08T07:14:06.470Z,8.50
2018-12-08T07:16:35.410Z,8.50
2018-12-08T07:19:04.301Z,8.50
2018-12-08T07:21:33.269Z,8.50
2018-12-08T07:24:02.122Z,8.50
2018-12-08T07:26:31.107Z,8.50
2018-12-08T07:29:00.060Z,8.50
2018-12-08T07:31:29.043Z,8.50
2018-12-08T07:33:57.987Z,8.50
2018-12-08T07:36:26.957Z,8.50
2018-12-08T07:38:55.901Z,8.50
2018-12-08T07:41:24.858Z,8.50
2018-12-08T07:43:53.838Z,8.50
2018-12-08T07:46:22.788Z,8.50
2018-12-08T07:48:51.705Z,8.50
2018-12-08T07:51:20.604Z,8.50
2018-12-08T07:53:49.660Z,8.50
2018-12-08T07:56:18.603Z,8.50
2018-12-08T07:58:47.698Z,8.50
2018-12-08T08:01:16.702Z,8.60
2018-12-08T08:03:45.626Z,8.60
2018-12-08T08:06:14.499Z,8.70
2018-12-08T08:08:44.372Z,8.70
2018-12-08T08:11:13.267Z,8.70
2018-12-08T08:13:42.325Z,8.80
2018-12-08T08:16:11.267Z,8.80
2018-12-08T08:18:40.156Z,8.80
2018-12-08T08:21:09.111Z,8.70
2018-12-08T08:23:38.072Z,8.70
2018-12-08T08:26:07.014Z,8.70
2018-12-08T08:28:35.913Z,8.70
2018-12-08T08:31:04.841Z,8.70
2018-12-08T08:33:33.989Z,8.70
2018-12-08T08:36:02.905Z,8.70
2018-12-08T08:38:31.779Z,8.70
2018-12-08T08:41:00.730Z,8.70
2018-12-08T08:43:30.071Z,8.70
2018-12-08T08:45:59.045Z,8.70
2018-12-08T08:48:27.943Z,8.70
2018-12-08T08:50:57.159Z,8.70
2018-12-08T08:53:28.261Z,8.60
2018-12-08T08:55:57.190Z,8.60
2018-12-08T08:58:26.068Z,8.60
2018-12-08T09:00:55.026Z,8.50
2018-12-08T09:03:23.894Z,8.50
2018-12-08T09:05:52.855Z,8.50
2018-12-08T09:08:21.813Z,8.50
2018-12-08T09:10:50.793Z,8.60
2018-12-08T09:13:19.722Z,8.60
2018-12-08T09:15:49.874Z,8.60
2018-12-08T09:18:19.839Z,8.50
2018-12-08T09:20:48.759Z,8.40
2018-12-08T09:23:17.650Z,8.30
2018-12-08T09:25:46.641Z,8.30
2018-12-08T09:28:15.495Z,8.20
2018-12-08T09:30:44.451Z,8.10
2018-12-08T09:33:13.438Z,8.10
2018-12-08T09:35:43.051Z,8.10
2018-12-08T09:38:11.971Z,8.10
2018-12-08T09:40:40.934Z,8.10
2018-12-08T09:43:10.710Z,8.00
2018-12-08T09:45:42.001Z,8.00
2018-12-08T09:48:10.559Z,8.00
2018-12-08T09:50:39.494Z,8.00
2018-12-08T09:53:14.804Z,8.00
2018-12-08T09:55:43.702Z,7.90
2018-12-08T09:58:12.642Z,7.90
2018-12-08T10:00:41.972Z,7.90
2018-12-08T10:03:10.877Z,7.90
2018-12-08T10:05:40.063Z,8.00
2018-12-08T10:08:09.079Z,8.00
2018-12-08T10:10:38.111Z,8.00
2018-12-08T10:13:07.099Z,8.00
2018-12-08T10:15:35.994Z,8.00
2018-12-08T10:18:05.047Z,8.10
2018-12-08T10:20:34.116Z,8.10
2018-12-08T10:23:03.126Z,8.10
2018-12-08T10:25:32.123Z,8.10
2018-12-08T10:28:01.044Z,8.10
2018-12-08T10:30:29.943Z,8.20
2018-12-08T10:32:58.857Z,8.20
2018-12-08T10:35:28.347Z,8.20
2018-12-08T10:37:57.254Z,8.30
2018-12-08T10:40:26.498Z,8.30
2018-12-08T10:42:55.511Z,8.40
2018-12-08T10:45:24.439Z,8.40
2018-12-08T10:47:53.437Z,8.40
2018-12-08T10:50:22.348Z,8.40
2018-12-08T10:52:51.237Z,8.40
2018-12-08T10:55:20.230Z,8.40
2018-12-08T10:57:49.145Z,8.30
2018-12-08T11:00:23.273Z,8.40
2018-12-08T11:02:57.281Z,8.40
2018-12-08T11:05:26.209Z,8.30
2018-12-08T11:07:55.210Z,8.30
2018-12-08T11:10:24.190Z,8.40
2018-12-08T11:12:53.218Z,8.30
2018-12-08T11:15:22.219Z,8.30
2018-12-08T11:17:51.074Z,8.30
2018-12-08T11:20:20.167Z,8.30
2018-12-08T11:22:49.133Z,8.20
2018-12-08T11:25:17.982Z,8.20
2018-12-08T11:27:47.824Z,8.20
2018-12-08T11:30:16.803Z,8.20
2018-12-08T11:32:46.367Z,8.10
2018-12-08T11:35:15.347Z,8.10
2018-12-08T11:37:44.384Z,8.10
2018-12-08T11:40:14.552Z,8.10
2018-12-08T11:42:43.639Z,8.10
2018-12-08T11:45:12.818Z,8.10
2018-12-08T11:47:41.735Z,8.10
2018-12-08T11:50:10.622Z,8.20
2018-12-08T11:52:39.590Z,8.30
2018-12-08T11:55:08.587Z,8.40
2018-12-08T11:57:37.613Z,8.50
2018-12-08T12:00:08.210Z,8.60
2018-12-08T12:02:37.223Z,8.60
2018-12-08T12:05:07.001Z,8.70
2018-12-08T12:07:35.912Z,8.60
2018-12-08T12:10:05.802Z,8.60
2018-12-08T12:12:34.941Z,8.50
2018-12-08T12:15:04.185Z,8.50
2018-12-08T12:17:33.086Z,8.50
2018-12-08T12:20:01.959Z,8.50
2018-12-08T12:22:30.929Z,8.60
2018-12-08T12:25:00.094Z,8.50
2018-12-08T12:27:28.970Z,8.40
2018-12-08T12:29:57.871Z,8.30
2018-12-08T12:32:26.873Z,8.20
2018-12-08T12:34:55.758Z,8.10
2018-12-08T12:37:24.745Z,8.00
2018-12-08T12:39:53.626Z,7.90
2018-12-08T12:42:22.550Z,7.80
2018-12-08T12:44:51.395Z,7.70
2018-12-08T12:47:20.515Z,7.70
2018-12-08T12:49:49.422Z,7.60
2018-12-08T12:52:18.728Z,7.50
2018-12-08T12:54:47.801Z,7.40
2018-12-08T12:57:16.671Z,7.30
2018-12-08T12:59:45.611Z,7.20
2018-12-08T13:02:14.582Z,7.10
2018-12-08T13:04:43.707Z,7.10
2018-12-08T13:07:12.721Z,7.10
2018-12-08T13:09:41.722Z,7.00
2018-12-08T13:12:11.061Z,7.00
2018-12-08T13:14:40.079Z,7.00
2018-12-08T13:17:09.023Z,7.00
2018-12-08T13:19:37.942Z,7.10
2018-12-08T13:22:06.842Z,7.00
2018-12-08T13:24:35.819Z,7.10
2018-12-08T13:27:04.726Z,7.10
2018-12-08T13:29:34.257Z,7.10
2018-12-08T13:32:03.159Z,7.20
2018-12-08T13:34:32.085Z,7.10
2018-12-08T13:37:00.955Z,7.10
2018-12-08T13:39:29.923Z,7.10
2018-12-08T13:41:58.889Z,7.00
2018-12-08T13:44:42.458Z,6.90
2018-12-08T13:47:11.385Z,6.90
2018-12-08T13:49:41.071Z,6.80
2018-12-08T13:52:11.378Z,6.80
2018-12-08T13:54:49.367Z,6.70
2018-12-08T13:57:18.346Z,6.60
2018-12-08T13:59:53.386Z,6.60
2018-12-08T14:02:22.501Z,6.60
2018-12-08T14:04:52.610Z,6.60
2018-12-08T14:07:21.590Z,6.60
2018-12-08T14:09:50.538Z,6.50
2018-12-08T14:12:20.135Z,6.60
2018-12-08T14:14:49.232Z,6.60
2018-12-08T14:17:18.238Z,6.70
2018-12-08T14:19:47.296Z,6.70
2018-12-08T14:22:16.292Z,6.60
2018-12-08T14:24:45.344Z,6.60
2018-12-08T14:27:14.251Z,6.50
2018-12-08T14:29:43.227Z,6.40
2018-12-08T14:32:12.193Z,6.40
2018-12-08T14:34:41.063Z,6.30
2018-12-08T14:37:10.019Z,6.20
2018-12-08T14:39:39.035Z,6.10
2018-12-08T14:42:08.257Z,6.10
2018-12-08T14:44:37.210Z,6.10
2018-12-08T14:47:06.096Z,6.10
2018-12-08T14:49:35.024Z,6.10
2018-12-08T14:52:03.943Z,6.00
2018-12-08T14:54:32.874Z,6.00
2018-12-08T14:57:01.834Z,5.90
2018-12-08T14:59:30.902Z,5.90
2018-12-08T15:01:59.886Z,5.90
2018-12-08T15:04:28.792Z,5.80
2018-12-08T15:06:57.802Z,5.80
2018-12-08T15:09:27.322Z,5.70
2018-12-08T15:11:56.181Z,5.60
2018-12-08T15:14:25.066Z,5.50
2018-12-08T15:16:54.667Z,5.40
2018-12-08T15:19:23.554Z,5.40
2018-12-08T15:21:53.070Z,5.30
2018-12-08T15:24:21.951Z,5.20
2018-12-08T15:26:50.867Z,5.10
2018-12-08T15:29:20.557Z,5.00
2018-12-08T15:31:49.575Z,4.90
2018-12-08T15:34:18.592Z,4.80
2018-12-08T15:36:47.502Z,4.80
2018-12-08T15:39:16.470Z,4.80
2018-12-08T15:41:45.426Z,4.70
2018-12-08T15:44:14.421Z,4.60
2018-12-08T15:46:43.375Z,4.50
2018-12-08T15:49:12.282Z,4.50
2018-12-08T15:51:41.241Z,4.50
2018-12-08T15:54:10.138Z,4.40
2018-12-08T15:56:39.174Z,4.40
2018-12-08T15:59:08.131Z,4.30
2018-12-08T16:01:37.107Z,4.40
2018-12-08T16:04:06.024Z,4.30
2018-12-08T16:06:35.011Z,4.30
2018-12-08T16:09:05.494Z,4.20
2018-12-08T16:11:34.371Z,4.10
2018-12-08T16:14:03.424Z,4.00
2018-12-08T16:16:33.353Z,4.00
2018-12-08T16:19:02.428Z,3.90
2018-12-08T16:21:31.801Z,3.80
2018-12-08T16:24:00.780Z,3.80
2018-12-08T16:26:29.794Z,3.80
2018-12-08T16:28:58.827Z,3.80
2018-12-08T16:31:27.875Z,3.80
2018-12-08T16:33:56.879Z,3.70
2018-12-08T16:36:25.860Z,3.70
2018-12-08T16:38:54.743Z,3.70
2018-12-08T16:41:23.607Z,3.70
2018-12-08T16:43:52.554Z,3.80
2018-12-08T16:46:22.498Z,4.00
2018-12-08T16:48:51.428Z,4.10
2018-12-08T16:51:20.486Z,4.20
2018-12-08T16:53:49.438Z,4.30
2018-12-08T16:56:19.164Z,4.40
2018-12-08T16:58:48.509Z,4.60
2018-12-08T17:01:18.363Z,4.70
2018-12-08T17:03:47.250Z,4.80
2018-12-08T17:06:16.197Z,5.00
2018-12-08T17:08:45.034Z,5.10
2018-12-08T17:11:13.895Z,5.20
2018-12-08T17:13:42.829Z,5.30
2018-12-08T17:16:11.758Z,5.30
2018-12-08T17:18:40.636Z,5.50
2018-12-08T17:21:09.484Z,5.60
2018-12-08T17:23:38.345Z,5.60
2018-12-08T17:26:07.456Z,5.60
2018-12-08T17:28:37.003Z,5.60
2018-12-08T17:31:05.900Z,5.50
2018-12-08T17:33:34.797Z,5.40
2018-12-08T17:36:04.473Z,5.20
2018-12-08T17:38:33.335Z,5.10
2018-12-08T17:41:02.257Z,4.90
2018-12-08T17:43:31.170Z,4.80
2018-12-08T17:46:00.030Z,4.80
2018-12-08T17:48:28.908Z,4.70
2018-12-08T17:50:57.870Z,4.60
2018-12-08T17:53:26.730Z,4.60
2018-12-08T17:55:55.658Z,4.50
2018-12-08T17:58:24.534Z,4.40
2018-12-08T18:00:53.454Z,4.40
2018-12-08T18:03:22.386Z,4.30
2018-12-08T18:05:51.405Z,4.30
2018-12-08T18:08:20.294Z,4.30
2018-12-08T18:10:49.896Z,4.10
2018-12-08T18:13:18.923Z,4.10
2018-12-08T18:15:47.789Z,4.20
2018-12-08T18:18:16.682Z,4.10
2018-12-08T18:20:45.616Z,4.00
2018-12-08T18:23:14.594Z,3.90
2018-12-08T18:25:43.565Z,3.90
2018-12-08T18:28:12.435Z,4.00
2018-12-08T18:30:41.318Z,4.00
2018-12-08T18:33:10.276Z,3.90
2018-12-08T18:35:39.139Z,3.80
2018-12-08T18:38:08.186Z,3.80
2018-12-08T18:40:37.287Z,3.80
2018-12-08T18:43:06.218Z,3.80
2018-12-08T18:45:35.133Z,3.80
2018-12-08T18:48:04.112Z,3.90
2018-12-08T18:50:33.009Z,3.90
2018-12-08T18:53:01.952Z,3.90
2018-12-08T18:55:31.003Z,4.00
2018-12-08T18:57:59.937Z,4.20
2018-12-08T19:00:29.041Z,4.30
2018-12-08T19:02:57.958Z,4.40
2018-12-08T19:05:27.010Z,4.50
2018-12-08T19:07:55.997Z,4.60
2018-12-08T19:10:24.910Z,4.60
2018-12-08T19:12:53.766Z,4.60
2018-12-08T19:15:22.690Z,4.60
2018-12-08T19:17:51.593Z,4.70
2018-12-08T19:20:20.766Z,4.80
2018-12-08T19:22:49.653Z,4.80
2018-12-08T19:25:18.520Z,4.80
2018-12-08T19:27:47.429Z,4.80
2018-12-08T19:30:16.404Z,4.90
2018-12-08T19:32:45.335Z,4.90
2018-12-08T19:35:14.339Z,4.90
2018-12-08T19:37:43.253Z,4.90
2018-12-08T19:40:12.190Z,5.00
2018-12-08T19:42:41.762Z,5.10
2018-12-08T19:45:10.863Z,5.10
2018-12-08T19:47:39.708Z,5.10
2018-12-08T19:50:08.764Z,5.20
2018-12-08T19:52:37.786Z,5.20
2018-12-08T19:55:06.962Z,5.20
2018-12-08T19:57:35.876Z,5.20
2018-12-08T20:00:06.206Z,5.20
2018-12-08T20:02:35.062Z,5.20
2018-12-08T20:05:04.560Z,5.20
2018-12-08T20:07:33.454Z,5.30
2018-12-08T20:10:02.544Z,5.30
2018-12-08T20:12:31.396Z,5.30
2018-12-08T20:15:00.267Z,5.30
2018-12-08T20:17:29.835Z,5.40
2018-12-08T20:19:58.774Z,5.40
2018-12-08T20:22:27.676Z,5.40
2018-12-08T20:24:57.602Z,5.40
2018-12-08T20:27:26.494Z,5.40
2018-12-08T20:29:55.347Z,5.40
2018-12-08T20:32:24.774Z,5.40
2018-12-08T20:34:53.684Z,5.40
2018-12-08T20:37:22.614Z,5.30
2018-12-08T20:39:52.367Z,5.20
2018-12-08T20:42:21.276Z,5.10
2018-12-08T20:44:50.208Z,5.10
2018-12-08T20:47:19.095Z,5.10
2018-12-08T20:49:47.979Z,5.00
2018-12-08T20:52:16.806Z,4.90
2018-12-08T20:54:45.753Z,4.80
2018-12-08T20:57:14.734Z,4.80
2018-12-08T20:59:43.635Z,4.90
2018-12-08T21:02:13.173Z,5.00
2018-12-08T21:04:42.082Z,5.00
2018-12-08T21:07:10.994Z,5.00
2018-12-08T21:09:39.888Z,5.00
2018-12-08T21:12:08.794Z,4.90
2018-12-08T21:14:37.749Z,4.90
2018-12-08T21:17:06.722Z,4.70
2018-12-08T21:19:35.628Z,4.60
2018-12-08T21:22:04.690Z,4.60
2018-12-08T21:24:33.554Z,4.70
2018-12-08T21:27:02.588Z,4.70
2018-12-08T21:29:31.518Z,4.80
2018-12-08T21:32:00.359Z,5.00
2018-12-08T21:34:29.310Z,5.10
2018-12-08T21:36:58.206Z,5.10
2018-12-08T21:39:27.102Z,5.20
2018-12-08T21:41:56.026Z,5.20
2018-12-08T21:44:24.914Z,5.20
2018-12-08T21:46:53.796Z,5.30
2018-12-08T21:49:22.762Z,5.30
2018-12-08T21:51:51.985Z,5.30
2018-12-08T21:54:20.838Z,5.30
2018-12-08T21:56:49.754Z,5.40
2018-12-08T21:59:18.598Z,5.50
2018-12-08T22:01:47.535Z,5.60
2018-12-08T22:04:16.435Z,5.50
2018-12-08T22:06:45.486Z,5.50
2018-12-08T22:09:15.503Z,5.50
2018-12-08T22:11:44.575Z,5.60
2018-12-08T22:14:13.605Z,5.60
2018-12-08T22:16:42.518Z,5.50
2018-12-08T22:19:11.768Z,5.60
2018-12-08T22:21:41.178Z,5.60
2018-12-08T22:24:11.085Z,5.60
2018-12-08T22:26:40.041Z,5.60
2018-12-08T22:29:08.895Z,5.60
2018-12-08T22:31:37.799Z,5.70
2018-12-08T22:34:06.655Z,5.60
2018-12-08T22:36:35.571Z,5.60
2018-12-08T22:39:06.355Z,5.60
2018-12-08T22:41:35.254Z,5.60
2018-12-08T22:44:04.138Z,5.50
2018-12-08T22:46:33.190Z,5.50
2018-12-08T22:49:02.080Z,5.50
2018-12-08T22:51:30.982Z,5.50
2018-12-08T22:53:59.883Z,5.50
2018-12-08T22:56:28.750Z,5.50
2018-12-08T22:58:57.781Z,5.50
2018-12-08T23:01:26.872Z,5.50
2018-12-08T23:03:55.806Z,5.50
2018-12-08T23:06:24.766Z,5.50
2018-12-08T23:08:53.632Z,5.50
2018-12-08T23:11:22.573Z,5.50
2018-12-08T23:13:52.455Z,5.40
2018-12-08T23:16:21.353Z,5.40
2018-12-08T23:18:50.364Z,5.30
2018-12-08T23:21:19.267Z,5.30
2018-12-08T23:23:48.166Z,5.30
2018-12-08T23:26:17.059Z,5.30
2018-12-08T23:28:46.056Z,5.30
2018-12-08T23:31:15.021Z,5.30
2018-12-08T23:33:44.070Z,5.30
2018-12-08T23:36:13.035Z,5.30
2018-12-08T23:38:41.923Z,5.30
2018-12-08T23:41:11.662Z,5.40
2018-12-08T23:43:40.573Z,5.30
2018-12-08T23:46:09.460Z,5.30
2018-12-08T23:48:38.347Z,5.30
2018-12-08T23:51:07.233Z,5.30
2018-12-08T23:53:36.086Z,5.30
2018-12-08T23:56:05.019Z,5.20
2018-12-08T23:58:33.900Z,5.30
